createdAt,value
2019-04-22T00:00:48.946Z,98712.30
2019-04-22T00:01:56.901Z,98709.98
2019-04-22T00:03:08.961Z,98711.67
2019-04-22T00:04:22.995Z,98706.98
2019-04-22T00:05:45.523Z,98709.16
2019-04-22T00:06:57.485Z,98708.66
2019-04-22T00:08:08.564Z,98706.83
2019-04-22T00:09:17.431Z,98704.65
2019-04-22T00:10:32.657Z,98709.00
2019-04-22T00:12:01.861Z,98707.16
2019-04-22T00:12:52.934Z,98707.00
2019-04-22T00:15:03.720Z,98707.33
2019-04-22T00:16:27.449Z,98710.84
2019-04-22T00:17:38.792Z,98703.31
2019-04-22T00:18:54.950Z,98701.97
2019-04-22T00:19:50.735Z,98701.63
2019-04-22T00:21:09.308Z,98698.45
2019-04-22T00:22:20.095Z,98698.95
2019-04-22T00:23:18.807Z,98698.11
2019-04-22T00:24:33.596Z,98698.95
2019-04-22T00:25:44.031Z,98697.94
2019-04-22T00:26:50.198Z,98699.28
2019-04-22T00:28:06.144Z,98701.08
2019-04-22T00:29:35.282Z,98697.73
2019-04-22T00:30:22.450Z,98700.73
2019-04-22T00:31:27.133Z,98697.84
2019-04-22T00:32:36.561Z,98693.98
2019-04-22T00:33:46.727Z,98695.15
2019-04-22T00:34:59.250Z,98694.15
2019-04-22T00:36:08.707Z,98694.47
2019-04-22T00:37:23.308Z,98696.60
2019-04-22T00:38:35.691Z,98691.70
2019-04-22T00:39:44.672Z,98689.52
2019-04-22T00:40:52.572Z,98691.86
2019-04-22T00:42:01.866Z,98691.97
2019-04-22T00:43:16.549Z,98682.53
2019-04-22T00:44:25.565Z,98674.92
2019-04-22T00:45:36.189Z,98670.73
2019-04-22T00:46:46.800Z,98673.41
2019-04-22T00:47:43.729Z,98665.04
2019-04-22T00:49:48.580Z,98664.98
2019-04-22T00:50:24.107Z,98663.59
2019-04-22T00:51:22.908Z,98659.50
2019-04-22T00:52:28.142Z,98665.64
2019-04-22T00:54:55.919Z,98670.25
2019-04-22T00:56:20.197Z,98669.59
2019-04-22T00:57:24.233Z,98669.25
2019-04-22T00:58:30.991Z,98669.25
2019-04-22T00:59:45.440Z,98665.92
2019-04-22T01:00:54.574Z,98673.16
2019-04-22T01:02:07.495Z,98660.84
2019-04-22T01:03:22.808Z,98661.22
2019-04-22T01:04:30.241Z,98661.89
2019-04-22T01:05:38.780Z,98660.06
2019-04-22T01:06:48.926Z,98655.70
2019-04-22T01:08:01.179Z,98647.52
2019-04-22T01:09:06.602Z,98653.38
2019-04-22T01:12:34.647Z,98641.38
2019-04-22T01:13:38.643Z,98640.30
2019-04-22T01:14:57.424Z,98650.77
2019-04-22T01:16:04.540Z,98643.52
2019-04-22T01:17:11.609Z,98645.86
2019-04-22T01:18:15.749Z,98642.84
2019-04-22T01:19:41.179Z,98643.84
2019-04-22T01:21:00.485Z,98646.02
2019-04-22T01:21:52.448Z,98648.69
2019-04-22T01:23:00.507Z,98646.20
2019-04-22T01:24:09.149Z,98645.05
2019-04-22T01:25:19.239Z,98648.09
2019-04-22T01:26:25.328Z,98648.11
2019-04-22T01:27:36.613Z,98637.42
2019-04-22T01:28:46.362Z,98634.46
2019-04-22T01:29:54.044Z,98632.13
2019-04-22T01:31:01.944Z,98631.47
2019-04-22T01:32:11.451Z,98630.47
2019-04-22T01:33:19.232Z,98628.30
2019-04-22T01:34:37.506Z,98628.63
2019-04-22T01:35:49.327Z,98626.67
2019-04-22T01:36:58.726Z,98620.45
2019-04-22T01:38:07.855Z,98628.84
2019-04-22T01:39:21.879Z,98624.00
2019-04-22T01:40:42.931Z,98623.34
2019-04-22T01:41:55.359Z,98624.34
2019-04-22T01:43:03.850Z,98624.67
2019-04-22T01:44:15.385Z,98619.33
2019-04-22T01:45:19.430Z,98621.66
2019-04-22T01:46:31.772Z,98618.48
2019-04-22T01:47:36.443Z,98621.66
2019-04-22T01:48:52.897Z,98626.30
2019-04-22T01:49:52.737Z,98625.80
2019-04-22T01:51:00.822Z,98628.84
2019-04-22T01:52:17.052Z,98619.98
2019-04-22T01:53:27.386Z,98618.77
2019-04-22T01:55:43.953Z,98609.23
2019-04-22T01:56:52.590Z,98610.07
2019-04-22T01:58:00.113Z,98605.38
2019-04-22T01:59:05.170Z,98608.22
2019-04-22T02:00:18.989Z,98609.16
2019-04-22T02:01:40.127Z,98606.90
2019-04-22T02:02:41.788Z,98602.66
2019-04-22T02:03:54.466Z,98593.73
2019-04-22T02:05:10.589Z,98606.77
2019-04-22T02:06:17.984Z,98600.23
2019-04-22T02:07:27.557Z,98600.23
2019-04-22T02:08:40.527Z,98606.58
2019-04-22T02:09:45.155Z,98605.34
2019-04-22T02:10:54.982Z,98599.09
2019-04-22T02:12:07.761Z,98595.00
2019-04-22T02:13:15.851Z,98598.27
2019-04-22T02:14:26.894Z,98599.01
2019-04-22T02:15:31.105Z,98593.32
2019-04-22T02:16:49.819Z,98599.23
2019-04-22T02:17:57.938Z,98592.23
2019-04-22T02:19:11.673Z,98592.73
2019-04-22T02:20:10.570Z,98589.56
2019-04-22T02:21:24.840Z,98584.06
2019-04-22T02:22:52.315Z,98581.73
2019-04-22T02:24:58.904Z,98576.86
2019-04-22T02:26:10.852Z,98576.80
2019-04-22T02:27:29.313Z,98572.38
2019-04-22T02:28:36.715Z,98580.52
2019-04-22T02:29:44.422Z,98577.94
2019-04-22T02:31:16.045Z,98585.89
2019-04-22T02:32:13.366Z,98585.70
2019-04-22T02:33:40.629Z,98583.34
2019-04-22T02:35:52.240Z,98588.22
2019-04-22T02:37:54.850Z,98585.20
2019-04-22T02:39:08.013Z,98588.87
2019-04-22T02:40:09.650Z,98588.72
2019-04-22T02:42:23.553Z,98594.25
2019-04-22T02:43:51.946Z,98587.29
2019-04-22T02:46:23.134Z,98587.54
2019-04-22T02:48:39.711Z,98578.72
2019-04-22T02:49:29.169Z,98582.73
2019-04-22T02:50:43.701Z,98585.24
2019-04-22T02:51:49.133Z,98583.29
2019-04-22T02:53:01.951Z,98584.47
2019-04-22T02:55:23.636Z,98592.17
2019-04-22T03:01:14.334Z,98593.47
2019-04-22T03:02:23.496Z,98597.66
2019-04-22T03:03:41.813Z,98599.06
2019-04-22T03:04:41.019Z,98597.42
2019-04-22T03:05:59.115Z,98601.27
2019-04-22T03:06:49.461Z,98601.65
2019-04-22T03:08:21.368Z,98602.98
2019-04-22T03:09:18.524Z,98601.49
2019-04-22T03:10:37.988Z,98601.84
2019-04-22T03:12:41.198Z,98603.52
2019-04-22T03:14:00.789Z,98607.02
2019-04-22T03:17:30.851Z,98607.86
2019-04-22T03:18:57.201Z,98611.53
2019-04-22T03:19:55.586Z,98615.88
2019-04-22T03:21:00.197Z,98613.36
2019-04-22T03:22:10.196Z,98608.17
2019-04-22T03:24:25.719Z,98598.48
2019-04-22T03:26:45.755Z,98591.58
2019-04-22T03:27:47.809Z,98594.72
2019-04-22T03:29:13.357Z,98602.51
2019-04-22T03:34:54.732Z,98618.94
2019-04-22T03:37:49.316Z,98621.19
2019-04-22T03:39:06.638Z,98625.50
2019-04-22T03:40:04.363Z,98621.99
2019-04-22T03:41:13.346Z,98621.16
2019-04-22T03:42:13.524Z,98618.76
2019-04-22T03:43:35.689Z,98620.55
2019-04-22T03:45:10.337Z,98618.92
2019-04-22T03:46:00.912Z,98627.16
2019-04-22T03:48:05.421Z,98631.24
2019-04-22T03:49:29.198Z,98629.86
2019-04-22T03:50:25.816Z,98631.70
2019-04-22T03:53:05.709Z,98630.48
2019-04-22T03:54:04.807Z,98636.80
2019-04-22T03:56:49.618Z,98630.28
2019-04-22T03:58:36.791Z,98634.36
2019-04-22T04:02:10.700Z,98628.43
2019-04-22T04:04:29.532Z,98626.81
2019-04-22T04:07:01.938Z,98644.37
2019-04-22T04:07:55.507Z,98647.45
2019-04-22T04:09:09.546Z,98652.92
2019-04-22T04:10:19.185Z,98649.22
2019-04-22T04:11:30.360Z,98650.67
2019-04-22T04:12:28.774Z,98650.13
2019-04-22T04:13:41.624Z,98646.04
2019-04-22T04:14:53.997Z,98648.85
2019-04-22T04:15:55.644Z,98653.00
2019-04-22T04:18:39.266Z,98654.48
2019-04-22T04:19:37.988Z,98648.65
2019-04-22T04:20:44.754Z,98648.50
2019-04-22T04:21:48.425Z,98648.70
2019-04-22T04:23:10.455Z,98650.03
2019-04-22T04:25:40.082Z,98649.78
2019-04-22T04:28:06.990Z,98646.19
2019-04-22T04:30:12.792Z,98646.83
2019-04-22T04:31:17.454Z,98642.13
2019-04-22T04:32:34.377Z,98649.05
2019-04-22T04:33:36.246Z,98649.49
2019-04-22T04:36:02.933Z,98651.03
2019-04-22T04:38:00.740Z,98647.92
2019-04-22T04:39:22.211Z,98660.41
2019-04-22T04:41:43.292Z,98650.94
2019-04-22T04:42:47.866Z,98655.23
2019-04-22T04:44:04.384Z,98653.89
2019-04-22T04:45:32.058Z,98662.23
2019-04-22T04:46:30.275Z,98656.06
2019-04-22T04:48:44.773Z,98651.08
2019-04-22T04:51:11.159Z,98649.89
2019-04-22T04:52:06.715Z,98647.58
2019-04-22T04:56:40.436Z,98641.70
2019-04-22T04:58:04.455Z,98642.73
2019-04-22T05:01:30.909Z,98642.45
2019-04-22T05:02:37.935Z,98641.70
2019-04-22T05:03:48.945Z,98646.19
2019-04-22T05:05:06.387Z,98648.16
2019-04-22T05:06:09.628Z,98648.42
2019-04-22T05:08:33.144Z,98652.70
2019-04-22T05:09:24.157Z,98652.36
2019-04-22T05:10:53.834Z,98655.38
2019-04-22T05:14:13.811Z,98670.04
2019-04-22T05:15:24.495Z,98664.47
2019-04-22T05:16:32.621Z,98664.96
2019-04-22T05:18:53.000Z,98662.94
2019-04-22T05:22:17.101Z,98671.28
2019-04-22T05:23:30.115Z,98675.42
2019-04-22T05:24:35.069Z,98670.73
2019-04-22T05:25:41.142Z,98674.34
2019-04-22T05:26:57.489Z,98669.16
2019-04-22T05:28:04.035Z,98678.14
2019-04-22T05:31:38.961Z,98686.56
2019-04-22T05:32:43.006Z,98688.25
2019-04-22T05:33:48.203Z,98693.29
2019-04-22T05:35:00.235Z,98689.78
2019-04-22T05:36:13.042Z,98693.29
2019-04-22T05:37:24.100Z,98695.47
2019-04-22T05:38:34.892Z,98698.77
2019-04-22T05:39:38.097Z,98700.59
2019-04-22T05:40:50.096Z,98699.75
2019-04-22T05:42:03.094Z,98704.59
2019-04-22T05:43:07.830Z,98707.39
2019-04-22T05:44:37.302Z,98714.41
2019-04-22T05:45:27.976Z,98711.11
2019-04-22T05:46:34.377Z,98710.47
2019-04-22T05:48:59.724Z,98719.55
2019-04-22T05:50:09.022Z,98718.82
2019-04-22T05:51:18.101Z,98718.47
2019-04-22T05:52:25.226Z,98720.64
2019-04-22T05:53:32.404Z,98713.63
2019-04-22T05:54:48.203Z,98720.16
2019-04-22T05:55:59.313Z,98714.47
2019-04-22T05:57:13.013Z,98705.87
2019-04-22T05:58:15.373Z,98707.55
2019-04-22T05:59:24.445Z,98706.28
2019-04-22T06:01:04.194Z,98709.68
2019-04-22T06:02:57.208Z,98705.30
2019-04-22T06:05:17.034Z,98720.55
2019-04-22T06:06:22.470Z,98709.73
2019-04-22T06:07:38.503Z,98712.89
2019-04-22T06:08:51.268Z,98715.91
2019-04-22T06:10:08.239Z,98714.09
2019-04-22T06:11:16.894Z,98712.98
2019-04-22T06:12:17.106Z,98709.25
2019-04-22T06:13:28.050Z,98713.39
2019-04-22T06:14:47.990Z,98713.05
2019-04-22T06:15:58.983Z,98716.20
2019-04-22T06:17:10.703Z,98720.94
2019-04-22T06:18:29.934Z,98723.41
2019-04-22T06:19:31.542Z,98724.88
2019-04-22T06:20:45.543Z,98726.33
2019-04-22T06:21:57.923Z,98729.86
2019-04-22T06:25:39.521Z,98738.86
2019-04-22T06:26:47.845Z,98735.42
2019-04-22T06:27:52.375Z,98736.49
2019-04-22T06:28:54.807Z,98736.35
2019-04-22T06:30:07.655Z,98743.45
2019-04-22T06:31:21.060Z,98746.47
2019-04-22T06:33:34.751Z,98743.52
2019-04-22T06:34:46.407Z,98750.19
2019-04-22T06:35:56.261Z,98747.03
2019-04-22T06:37:11.900Z,98762.05
2019-04-22T06:38:30.543Z,98758.05
2019-04-22T06:39:28.099Z,98757.09
2019-04-22T06:41:47.797Z,98764.22
2019-04-22T06:42:57.617Z,98765.09
2019-04-22T06:44:11.090Z,98760.22
2019-04-22T06:45:18.765Z,98758.77
2019-04-22T06:46:31.094Z,98755.96
2019-04-22T06:47:50.986Z,98752.80
2019-04-22T06:48:45.762Z,98752.80
2019-04-22T06:49:55.596Z,98753.16
2019-04-22T06:51:05.157Z,98757.09
2019-04-22T06:53:23.708Z,98751.81
2019-04-22T06:54:32.870Z,98757.15
2019-04-22T06:55:48.117Z,98760.02
2019-04-22T06:56:57.689Z,98764.27
2019-04-22T06:58:04.546Z,98776.12
2019-04-22T06:59:14.766Z,98775.91
2019-04-22T07:00:24.486Z,98782.93
2019-04-22T07:01:35.794Z,98782.44
2019-04-22T07:02:56.374Z,98780.33
2019-04-22T07:03:53.996Z,98783.23
2019-04-22T07:05:02.240Z,98784.27
2019-04-22T07:06:13.058Z,98782.68
2019-04-22T07:07:41.759Z,98787.14
2019-04-22T07:09:46.599Z,98788.22
2019-04-22T07:10:50.673Z,98787.09
2019-04-22T07:12:09.079Z,98789.62
2019-04-22T07:13:21.100Z,98788.02
2019-04-22T07:14:18.462Z,98791.39
2019-04-22T07:15:46.441Z,98796.47
2019-04-22T07:16:43.262Z,98792.52
2019-04-22T07:17:56.573Z,98800.62
2019-04-22T07:19:02.517Z,98802.36
2019-04-22T07:20:10.615Z,98804.53
2019-04-22T07:21:23.515Z,98818.95
2019-04-22T07:22:45.452Z,98811.09
2019-04-22T07:24:53.770Z,98809.75
2019-04-22T07:25:58.204Z,98811.70
2019-04-22T07:27:10.600Z,98814.25
2019-04-22T07:28:21.655Z,98800.41
2019-04-22T07:29:32.424Z,98809.46
2019-04-22T07:30:42.889Z,98813.67
2019-04-22T07:31:54.704Z,98808.56
2019-04-22T07:34:31.068Z,98816.02
2019-04-22T07:36:46.757Z,98819.67
2019-04-22T07:37:58.246Z,98829.71
2019-04-22T07:38:43.836Z,98839.90
2019-04-22T07:39:56.795Z,98825.02
2019-04-22T07:41:05.344Z,98841.94
2019-04-22T07:42:25.919Z,98823.24
2019-04-22T07:43:42.923Z,98836.09
2019-04-22T07:44:38.470Z,98825.68
2019-04-22T07:45:51.879Z,98827.51
2019-04-22T07:47:10.123Z,98828.73
2019-04-22T07:48:18.946Z,98824.34
2019-04-22T07:49:24.038Z,98837.34
2019-04-22T07:50:44.158Z,98847.12
2019-04-22T07:51:36.913Z,98832.70
2019-04-22T07:52:44.991Z,98839.81
2019-04-22T07:53:57.449Z,98832.15
2019-04-22T07:55:01.657Z,98844.77
2019-04-22T07:56:18.661Z,98838.09
2019-04-22T07:57:32.378Z,98849.90
2019-04-22T07:58:35.483Z,98843.52
2019-04-22T07:59:50.515Z,98860.37
2019-04-22T08:01:02.008Z,98840.26
2019-04-22T08:02:12.784Z,98834.08
2019-04-22T08:03:20.874Z,98840.41
2019-04-22T08:04:54.279Z,98844.20
2019-04-22T08:05:45.386Z,98864.70
2019-04-22T08:06:52.820Z,98841.58
2019-04-22T08:08:02.528Z,98838.70
2019-04-22T08:09:08.011Z,98845.14
2019-04-22T08:10:24.078Z,98837.08
2019-04-22T08:12:41.589Z,98846.76
2019-04-22T08:13:46.635Z,98860.59
2019-04-22T08:14:52.192Z,98855.36
2019-04-22T08:16:02.776Z,98875.16
2019-04-22T08:17:43.212Z,98885.13
2019-04-22T08:18:28.942Z,98864.19
2019-04-22T08:19:37.265Z,98862.30
2019-04-22T08:20:48.732Z,98847.77
2019-04-22T08:21:59.996Z,98845.98
2019-04-22T08:24:14.698Z,98857.74
2019-04-22T08:25:24.845Z,98861.05
2019-04-22T08:26:32.075Z,98872.83
2019-04-22T08:27:46.839Z,98863.64
2019-04-22T08:29:02.933Z,98872.13
2019-04-22T08:30:09.447Z,98857.36
2019-04-22T08:31:14.911Z,98857.99
2019-04-22T08:32:22.452Z,98872.52
2019-04-22T08:33:38.202Z,98873.05
2019-04-22T08:34:42.745Z,98878.27
2019-04-22T08:36:07.202Z,98883.73
2019-04-22T08:38:11.470Z,98900.09
2019-04-22T08:40:45.546Z,98898.19
2019-04-22T08:45:23.387Z,98913.13
2019-04-22T08:46:36.504Z,98923.89
2019-04-22T08:47:36.013Z,98924.73
2019-04-22T08:48:43.975Z,98915.89
2019-04-22T08:50:03.230Z,98926.56
2019-04-22T08:51:08.479Z,98922.34
2019-04-22T08:52:16.404Z,98922.83
2019-04-22T08:53:34.309Z,98929.52
2019-04-22T08:54:36.213Z,98936.40
2019-04-22T08:55:56.031Z,98939.69
2019-04-22T08:56:52.336Z,98924.41
2019-04-22T08:58:21.405Z,98943.31
2019-04-22T08:59:12.100Z,98943.06
2019-04-22T09:00:34.208Z,98942.22
2019-04-22T09:01:35.954Z,98951.20
2019-04-22T09:02:46.782Z,98969.38
2019-04-22T09:03:58.431Z,98974.72
2019-04-22T09:05:10.535Z,98975.55
2019-04-22T09:06:25.123Z,98973.14
2019-04-22T09:07:28.774Z,98970.83
2019-04-22T09:08:34.192Z,98972.03
2019-04-22T09:09:45.923Z,98964.64
2019-04-22T09:10:58.611Z,98961.83
2019-04-22T09:13:10.153Z,98964.83
2019-04-22T09:14:24.387Z,98951.98
2019-04-22T09:15:39.190Z,98951.01
2019-04-22T09:16:42.821Z,98955.58
2019-04-22T09:17:55.883Z,98957.78
2019-04-22T09:18:59.239Z,98952.31
2019-04-22T09:20:15.466Z,98952.88
2019-04-22T09:21:26.476Z,98954.95
2019-04-22T09:22:47.252Z,98955.17
2019-04-22T09:23:44.526Z,98954.54
2019-04-22T09:24:54.796Z,98948.13
2019-04-22T09:26:05.020Z,98950.86
2019-04-22T09:27:22.882Z,98949.14
2019-04-22T09:28:24.602Z,98946.91
2019-04-22T09:29:35.703Z,98943.36
2019-04-22T09:30:50.244Z,98939.67
2019-04-22T09:31:56.638Z,98931.28
2019-04-22T09:33:08.238Z,98932.55
2019-04-22T09:34:06.852Z,98933.84
2019-04-22T09:35:24.092Z,98934.50
2019-04-22T09:38:49.243Z,98921.08
2019-04-22T09:41:37.513Z,98923.56
2019-04-22T09:42:45.505Z,98913.80
2019-04-22T09:43:52.367Z,98917.11
2019-04-22T09:45:01.896Z,98914.73
2019-04-22T09:46:08.717Z,98909.17
2019-04-22T09:47:21.118Z,98912.63
2019-04-22T09:48:37.482Z,98914.75
2019-04-22T09:49:47.638Z,98916.48
2019-04-22T09:50:47.692Z,98916.77
2019-04-22T09:52:00.002Z,98920.91
2019-04-22T09:53:08.713Z,98916.33
2019-04-22T09:54:22.041Z,98922.59
2019-04-22T09:55:32.279Z,98921.54
2019-04-22T09:56:47.597Z,98926.94
2019-04-22T09:57:52.756Z,98918.34
2019-04-22T09:59:03.817Z,98918.54
2019-04-22T10:02:35.575Z,98921.17
2019-04-22T10:03:48.171Z,98920.76
2019-04-22T10:04:57.260Z,98921.05
2019-04-22T10:06:14.577Z,98922.16
2019-04-22T10:07:19.642Z,98919.44
2019-04-22T10:08:24.644Z,98915.09
2019-04-22T10:09:49.548Z,98918.90
2019-04-22T10:10:51.616Z,98915.38
2019-04-22T10:12:10.272Z,98918.90
2019-04-22T10:13:10.512Z,98925.92
2019-04-22T10:14:13.173Z,98917.05
2019-04-22T10:15:30.187Z,98927.67
2019-04-22T10:16:37.137Z,98923.66
2019-04-22T10:17:47.307Z,98913.07
2019-04-22T10:19:01.032Z,98911.21
2019-04-22T10:20:06.811Z,98910.47
2019-04-22T10:21:21.396Z,98907.41
2019-04-22T10:22:32.485Z,98921.58
2019-04-22T10:23:31.818Z,98906.57
2019-04-22T10:24:49.509Z,98920.70
2019-04-22T10:26:02.529Z,98910.34
2019-04-22T10:27:01.748Z,98922.12
2019-04-22T10:28:14.818Z,98929.06
2019-04-22T10:29:24.831Z,98917.47
2019-04-22T10:30:43.921Z,98911.83
2019-04-22T10:31:43.540Z,98932.86
2019-04-22T10:32:52.350Z,98921.28
2019-04-22T10:33:53.258Z,98930.02
2019-04-22T10:35:03.162Z,98923.65
2019-04-22T10:36:08.036Z,98906.97
2019-04-22T10:37:18.970Z,98908.83
2019-04-22T10:38:26.474Z,98903.26
2019-04-22T10:39:43.854Z,98910.13
2019-04-22T10:40:46.820Z,98901.44
2019-04-22T10:41:55.019Z,98902.05
2019-04-22T10:43:03.517Z,98905.86
2019-04-22T10:44:12.900Z,98905.84
2019-04-22T10:45:21.945Z,98907.28
2019-04-22T10:46:30.612Z,98897.08
2019-04-22T10:47:40.259Z,98909.13
2019-04-22T10:48:48.683Z,98910.21
2019-04-22T10:49:56.680Z,98897.60
2019-04-22T10:51:06.588Z,98881.31
2019-04-22T10:52:16.385Z,98887.20
2019-04-22T10:53:25.788Z,98874.84
2019-04-22T10:54:35.427Z,98883.05
2019-04-22T10:55:45.662Z,98884.62
2019-04-22T10:56:54.883Z,98888.91
2019-04-22T10:58:04.387Z,98884.02
2019-04-22T10:59:12.709Z,98871.78
2019-04-22T11:00:21.815Z,98878.21
2019-04-22T11:01:29.868Z,98880.55
2019-04-22T11:02:39.351Z,98874.25
2019-04-22T11:03:48.974Z,98882.65
2019-04-22T11:04:58.455Z,98887.98
2019-04-22T11:06:07.458Z,98886.70
2019-04-22T11:07:17.337Z,98886.87
2019-04-22T11:10:17.855Z,98885.97
2019-04-22T11:11:21.434Z,98878.69
2019-04-22T11:12:22.742Z,98892.47
2019-04-22T11:13:28.655Z,98890.46
2019-04-22T11:14:37.737Z,98894.13
2019-04-22T11:15:48.808Z,98886.63
2019-04-22T11:17:00.454Z,98895.93
2019-04-22T11:18:09.384Z,98886.30
2019-04-22T11:19:17.746Z,98891.61
2019-04-22T11:20:26.039Z,98895.06
2019-04-22T11:21:34.166Z,98896.73
2019-04-22T11:22:42.737Z,98901.16
2019-04-22T11:23:52.344Z,98900.50
2019-04-22T11:25:01.341Z,98904.86
2019-04-22T11:26:10.164Z,98904.30
2019-04-22T11:27:18.964Z,98903.36
2019-04-22T11:28:27.721Z,98903.28
2019-04-22T11:29:37.423Z,98900.29
2019-04-22T11:30:45.940Z,98906.76
2019-04-22T11:31:54.697Z,98898.40
2019-04-22T11:33:02.904Z,98899.09
2019-04-22T11:34:11.131Z,98910.59
2019-04-22T11:35:19.638Z,98901.06
2019-04-22T11:36:30.593Z,98900.23
2019-04-22T11:37:38.760Z,98897.54
2019-04-22T11:38:55.220Z,98898.52
2019-04-22T11:40:07.538Z,98895.41
2019-04-22T11:41:09.157Z,98892.02
2019-04-22T11:42:18.241Z,98890.00
2019-04-22T11:43:28.491Z,98902.30
2019-04-22T11:44:37.180Z,98889.14
2019-04-22T11:45:45.419Z,98897.00
2019-04-22T11:46:53.600Z,98890.34
2019-04-22T11:48:03.499Z,98895.00
2019-04-22T11:49:12.136Z,98888.02
2019-04-22T11:50:22.307Z,98884.78
2019-04-22T11:51:31.807Z,98889.34
2019-04-22T11:52:40.611Z,98880.98
2019-04-22T11:53:49.157Z,98880.19
2019-04-22T11:54:58.870Z,98894.61
2019-04-22T11:56:08.821Z,98901.09
2019-04-22T11:57:17.168Z,98889.31
2019-04-22T11:58:26.579Z,98891.59
2019-04-22T11:59:34.760Z,98887.59
2019-04-22T12:00:45.012Z,98886.77
2019-04-22T12:01:54.927Z,98877.04
2019-04-22T12:03:05.049Z,98888.80
2019-04-22T12:04:13.833Z,98881.73
2019-04-22T12:05:22.002Z,98886.25
2019-04-22T12:06:31.613Z,98892.15
2019-04-22T12:07:41.052Z,98886.47
2019-04-22T12:09:01.655Z,98881.88
2019-04-22T12:10:30.907Z,98865.53
2019-04-22T12:11:38.525Z,98892.66
2019-04-22T12:12:53.950Z,98880.20
2019-04-22T12:14:13.954Z,98888.52
2019-04-22T12:15:26.773Z,98881.66
2019-04-22T12:16:35.194Z,98880.50
2019-04-22T12:17:44.742Z,98881.22
2019-04-22T12:18:53.718Z,98883.58
2019-04-22T12:20:05.569Z,98874.00
2019-04-22T12:21:13.148Z,98863.56
2019-04-22T12:22:21.197Z,98875.66
2019-04-22T12:23:29.723Z,98869.13
2019-04-22T12:24:38.439Z,98875.70
2019-04-22T12:25:54.447Z,98868.13
2019-04-22T12:26:58.036Z,98870.48
2019-04-22T12:28:06.852Z,98885.30
2019-04-22T12:29:15.387Z,98873.04
2019-04-22T12:30:25.625Z,98874.70
2019-04-22T12:31:33.651Z,98873.86
2019-04-22T12:32:43.487Z,98879.92
2019-04-22T12:33:52.967Z,98884.63
2019-04-22T12:35:01.838Z,98888.66
2019-04-22T12:36:12.650Z,98889.69
2019-04-22T12:37:29.070Z,98893.04
2019-04-22T12:38:31.463Z,98878.93
2019-04-22T12:39:39.448Z,98920.59
2019-04-22T12:40:56.494Z,98895.03
2019-04-22T12:42:00.052Z,98904.78
2019-04-22T12:43:11.933Z,98896.20
2019-04-22T12:44:19.807Z,98924.10
2019-04-22T12:45:29.829Z,98910.62
2019-04-22T12:46:38.452Z,98906.73
2019-04-22T12:47:46.652Z,98913.24
2019-04-22T12:48:56.117Z,98903.00
2019-04-22T12:50:15.918Z,98902.98
2019-04-22T12:51:16.799Z,98897.75
2019-04-22T12:52:33.962Z,98896.58
2019-04-22T12:53:35.963Z,98890.19
2019-04-22T12:54:44.635Z,98888.87
2019-04-22T12:55:55.239Z,98880.18
2019-04-22T12:57:03.799Z,98879.91
2019-04-22T12:58:13.828Z,98881.93
2019-04-22T12:59:21.847Z,98880.39
2019-04-22T13:00:30.476Z,98873.81
2019-04-22T13:01:39.170Z,98874.42
2019-04-22T13:02:47.498Z,98869.11
2019-04-22T13:04:01.671Z,98880.30
2019-04-22T13:05:08.193Z,98872.78
2019-04-22T13:06:17.320Z,98864.52
2019-04-22T13:07:25.975Z,98862.99
2019-04-22T13:08:34.152Z,98853.85
2019-04-22T13:09:43.280Z,98851.21
2019-04-22T13:10:59.291Z,98851.51
2019-04-22T13:12:03.231Z,98850.80
2019-04-22T13:13:13.130Z,98853.18
2019-04-22T13:14:21.429Z,98854.44
2019-04-22T13:15:30.829Z,98856.89
2019-04-22T13:16:39.091Z,98859.34
2019-04-22T13:17:59.493Z,98864.06
2019-04-22T13:19:03.177Z,98864.09
2019-04-22T13:20:13.000Z,98865.73
2019-04-22T13:21:20.539Z,98856.56
2019-04-22T13:22:30.496Z,98871.52
2019-04-22T13:23:39.022Z,98859.95
2019-04-22T13:24:47.975Z,98864.94
2019-04-22T13:25:56.758Z,98860.64
2019-04-22T13:27:06.568Z,98873.23
2019-04-22T13:28:15.460Z,98872.14
2019-04-22T13:29:25.135Z,98875.28
2019-04-22T13:30:36.750Z,98892.88
2019-04-22T13:31:46.578Z,98887.69
2019-04-22T13:32:54.641Z,98872.63
2019-04-22T13:34:04.041Z,98934.63
2019-04-22T13:35:14.926Z,98907.91
2019-04-22T13:36:25.795Z,98909.97
2019-04-22T13:37:33.062Z,98923.11
2019-04-22T13:38:41.117Z,98914.55
2019-04-22T13:39:49.650Z,98950.38
2019-04-22T13:41:14.040Z,98907.49
2019-04-22T13:42:12.431Z,98909.68
2019-04-22T13:43:18.667Z,98905.45
2019-04-22T13:44:28.768Z,98896.54
2019-04-22T13:45:43.737Z,98895.66
2019-04-22T13:47:08.576Z,98894.64
2019-04-22T13:48:17.631Z,98883.03
2019-04-22T13:49:42.862Z,98886.23
2019-04-22T13:51:05.822Z,98883.85
2019-04-22T13:52:18.335Z,98884.69
2019-04-22T13:53:22.106Z,98876.63
2019-04-22T13:55:32.751Z,98873.77
2019-04-22T13:56:34.955Z,98875.14
2019-04-22T13:57:41.371Z,98875.00
2019-04-22T13:58:44.789Z,98874.55
2019-04-22T13:59:46.356Z,98874.38
2019-04-22T14:00:52.339Z,98877.19
2019-04-22T14:02:00.795Z,98881.63
2019-04-22T14:04:28.694Z,98872.59
2019-04-22T14:05:38.449Z,98880.09
2019-04-22T14:06:47.003Z,98870.22
2019-04-22T14:07:55.656Z,98874.43
2019-04-22T14:09:07.454Z,98871.26
2019-04-22T14:10:16.420Z,98870.81
2019-04-22T14:11:32.715Z,98866.02
2019-04-22T14:12:34.902Z,98874.67
2019-04-22T14:13:43.853Z,98876.47
2019-04-22T14:14:52.557Z,98871.75
2019-04-22T14:16:01.751Z,98857.06
2019-04-22T14:17:11.207Z,98856.39
2019-04-22T14:18:19.385Z,98869.30
2019-04-22T14:19:27.890Z,98868.22
2019-04-22T14:20:36.827Z,98875.55
2019-04-22T14:21:47.350Z,98857.59
2019-04-22T14:22:56.659Z,98862.20
2019-04-22T14:24:04.950Z,98860.70
2019-04-22T14:25:14.594Z,98862.21
2019-04-22T14:26:23.075Z,98854.45
2019-04-22T14:27:41.834Z,98865.29
2019-04-22T14:28:41.667Z,98867.38
2019-04-22T14:29:49.725Z,98875.47
2019-04-22T14:30:57.880Z,98880.39
2019-04-22T14:32:14.612Z,98875.04
2019-04-22T14:33:16.131Z,98875.84
2019-04-22T14:34:26.404Z,98874.48
2019-04-22T14:35:35.453Z,98877.14
2019-04-22T14:36:43.548Z,98879.09
2019-04-22T14:37:52.264Z,98876.88
2019-04-22T14:39:00.213Z,98876.31
2019-04-22T14:40:11.811Z,98871.01
2019-04-22T14:41:39.105Z,98873.00
2019-04-22T14:42:52.307Z,98875.98
2019-04-22T14:44:23.508Z,98876.20
2019-04-22T14:46:23.378Z,98874.22
2019-04-22T14:47:34.713Z,98874.34
2019-04-22T14:48:46.429Z,98872.07
2019-04-22T14:49:47.313Z,98872.91
2019-04-22T14:50:57.775Z,98874.05
2019-04-22T14:52:13.282Z,98875.09
2019-04-22T14:53:19.425Z,98862.38
2019-04-22T14:54:24.213Z,98872.63
2019-04-22T14:55:23.881Z,98869.52
2019-04-22T14:56:28.654Z,98869.91
2019-04-22T14:57:38.291Z,98870.11
2019-04-22T14:58:46.920Z,98864.55
2019-04-22T14:59:55.798Z,98855.09
2019-04-22T15:01:04.314Z,98852.06
2019-04-22T15:02:13.939Z,98856.00
2019-04-22T15:03:23.730Z,98863.55
2019-04-22T15:04:33.052Z,98858.95
2019-04-22T15:05:41.993Z,98847.53
2019-04-22T15:06:50.477Z,98860.46
2019-04-22T15:07:59.174Z,98839.09
2019-04-22T15:09:10.299Z,98846.66
2019-04-22T15:10:22.095Z,98859.01
2019-04-22T15:11:42.924Z,98846.17
2019-04-22T15:12:45.838Z,98852.47
2019-04-22T15:13:51.635Z,98847.70
2019-04-22T15:15:01.714Z,98845.09
2019-04-22T15:16:29.870Z,98851.10
2019-04-22T15:17:47.207Z,98849.25
2019-04-22T15:19:07.659Z,98850.58
2019-04-22T15:20:34.570Z,98862.53
2019-04-22T15:21:43.070Z,98862.81